createdAt,value
2023-05-12T00:00:27.986Z,46.85
2023-05-12T00:05:30.382Z,46.23
2023-05-12T00:10:32.404Z,46.70
2023-05-12T00:15:34.442Z,47.03
2023-05-12T00:20:36.498Z,46.58
2023-05-12T00:25:38.483Z,47.04
2023-05-12T00:30:40.280Z,47.26
2023-05-12T00:35:42.357Z,46.95
2023-05-12T00:40:44.288Z,47.32
2023-05-12T00:45:46.527Z,47.83
2023-05-12T00:50:48.658Z,48.31
2023-05-12T00:55:51.010Z,48.12
2023-05-12T01:00:53.028Z,48.19
2023-05-12T01:06:05.230Z,48.76
2023-05-12T01:11:07.323Z,48.23
2023-05-12T01:16:12.680Z,48.56
2023-05-12T01:21:14.997Z,47.83
2023-05-12T01:26:17.374Z,48.61
2023-05-12T01:31:21.197Z,48.06
2023-05-12T01:36:23.375Z,48.34
2023-05-12T01:41:25.234Z,48.25
2023-05-12T01:46:27.202Z,48.45
2023-05-12T01:51:29.145Z,48.62
2023-05-12T01:56:31.115Z,48.32
2023-05-12T02:06:42.860Z,48.73
2023-05-12T02:11:44.704Z,48.29
2023-05-12T02:16:49.186Z,48.82
2023-05-12T02:21:51.282Z,49.31
2023-05-12T02:26:53.126Z,49.20
2023-05-12T02:31:55.142Z,49.52
2023-05-12T02:36:57.158Z,49.86
2023-05-12T02:41:59.177Z,49.58
2023-05-12T02:47:01.172Z,50.17
2023-05-12T02:52:03.245Z,50.30
2023-05-12T02:57:05.984Z,49.72
2023-05-12T03:02:08.104Z,50.87
2023-05-12T03:07:09.991Z,50.35
2023-05-12T03:12:12.090Z,50.04
2023-05-12T03:17:14.035Z,50.75
2023-05-12T03:22:16.368Z,51.08
2023-05-12T03:27:18.349Z,50.19
2023-05-12T03:32:20.476Z,51.40
2023-05-12T03:37:22.361Z,51.41
2023-05-12T03:42:24.905Z,51.08
2023-05-12T03:47:29.114Z,51.83
2023-05-12T03:52:31.344Z,51.04
2023-05-12T03:57:34.699Z,51.35
2023-05-12T04:02:36.877Z,51.53
2023-05-12T04:07:39.607Z,51.37
2023-05-12T04:12:41.644Z,50.94
2023-05-12T04:17:44.305Z,51.84
2023-05-12T04:22:47.796Z,52.08
2023-05-12T04:27:49.809Z,52.25
2023-05-12T04:32:52.340Z,51.94
2023-05-12T04:37:54.846Z,52.61
2023-05-12T04:42:56.851Z,51.94
2023-05-12T04:47:58.874Z,50.29
2023-05-12T04:53:01.389Z,49.62
2023-05-12T04:58:03.415Z,49.72
2023-05-12T05:03:06.285Z,48.39
2023-05-12T05:08:08.653Z,47.61
2023-05-12T05:13:10.656Z,47.11
2023-05-12T05:18:12.901Z,46.61
2023-05-12T05:23:15.303Z,46.13
2023-05-12T05:28:17.402Z,45.53
2023-05-12T05:33:19.383Z,43.74
2023-05-12T05:38:21.491Z,44.84
2023-05-12T05:43:23.751Z,45.59
2023-05-12T05:48:26.587Z,43.15
2023-05-12T05:53:29.142Z,43.66
2023-05-12T05:58:31.321Z,41.99
2023-05-12T06:03:33.550Z,42.64
2023-05-12T06:08:35.812Z,42.28
2023-05-12T06:13:37.984Z,42.05
2023-05-12T06:18:40.043Z,41.04
2023-05-12T06:23:42.476Z,41.19
2023-05-12T06:28:44.618Z,40.31
2023-05-12T06:33:46.679Z,39.76
2023-05-12T06:38:48.698Z,38.97
2023-05-12T06:43:51.336Z,38.74
2023-05-12T06:48:53.401Z,37.34
2023-05-12T06:53:56.231Z,35.73
2023-05-12T06:59:04.969Z,36.87
2023-05-12T07:04:08.196Z,36.80
2023-05-12T07:09:10.426Z,35.60
2023-05-12T07:14:12.473Z,35.61
2023-05-12T07:19:15.176Z,34.15
2023-05-12T07:24:17.953Z,34.28
2023-05-12T07:29:20.003Z,33.19
2023-05-12T07:34:22.240Z,32.05
2023-05-12T07:39:24.322Z,31.62
2023-05-12T07:44:27.838Z,31.42
2023-05-12T07:49:29.981Z,30.23
2023-05-12T07:54:32.450Z,31.36
2023-05-12T07:59:34.568Z,30.28
2023-05-12T08:04:36.565Z,29.84
2023-05-12T08:09:38.759Z,29.44
2023-05-12T08:14:41.075Z,28.71
2023-05-12T08:19:43.212Z,27.37
2023-05-12T08:24:47.941Z,26.76
2023-05-12T08:29:50.621Z,27.26
2023-05-12T08:34:53.017Z,25.41
2023-05-12T08:39:55.914Z,25.59
2023-05-12T08:45:00.423Z,25.52
2023-05-12T08:50:04.118Z,25.91
2023-05-12T08:55:07.266Z,26.65
2023-05-12T09:00:11.097Z,25.14
2023-05-12T09:05:13.304Z,24.85
2023-05-12T09:10:33.527Z,23.96
2023-05-12T09:15:44.992Z,24.19
2023-05-12T09:20:47.465Z,24.09
2023-05-12T09:26:01.708Z,25.51
2023-05-12T09:31:25.926Z,24.30
2023-05-12T09:36:28.823Z,24.58
2023-05-12T09:41:52.688Z,25.07
2023-05-12T09:46:55.154Z,23.40
2023-05-12T09:51:58.890Z,23.42
2023-05-12T09:57:05.632Z,23.90
2023-05-12T10:02:09.813Z,24.13
2023-05-12T10:07:13.819Z,24.04
2023-05-12T10:12:17.178Z,22.88
2023-05-12T10:17:21.136Z,23.35
2023-05-12T10:22:23.805Z,24.83
2023-05-12T10:27:26.858Z,24.50
2023-05-12T10:32:29.556Z,23.16
2023-05-12T10:37:31.771Z,24.10
2023-05-12T10:42:43.756Z,23.19
2023-05-12T10:47:48.987Z,23.84
2023-05-12T10:52:55.332Z,22.73
2023-05-12T10:58:05.680Z,22.58
2023-05-12T11:03:14.602Z,22.58
2023-05-12T11:08:18.152Z,23.14
2023-05-12T11:13:22.406Z,22.90
2023-05-12T11:18:24.794Z,22.72
2023-05-12T11:23:30.190Z,22.88
2023-05-12T11:28:41.566Z,23.72
2023-05-12T11:33:43.617Z,23.18
2023-05-12T11:38:52.157Z,22.23
2023-05-12T11:43:54.374Z,23.34
2023-05-12T11:48:58.597Z,22.52
2023-05-12T11:54:00.817Z,23.00
2023-05-12T11:59:03.184Z,23.39
2023-05-12T12:04:05.324Z,22.23
2023-05-12T12:09:08.947Z,22.49
2023-05-12T12:14:11.366Z,22.68
2023-05-12T12:19:14.077Z,23.34
2023-05-12T12:24:16.509Z,23.10
2023-05-12T12:29:18.980Z,22.94
2023-05-12T12:34:21.118Z,21.97
2023-05-12T12:39:23.609Z,22.38
2023-05-12T12:44:26.566Z,22.07
2023-05-12T12:49:28.773Z,21.70
2023-05-12T12:54:31.192Z,21.82
2023-05-12T12:59:34.304Z,20.79
2023-05-12T13:04:36.422Z,20.62
2023-05-12T13:09:38.534Z,21.20
2023-05-12T13:14:40.892Z,21.05
2023-05-12T13:19:43.990Z,20.31
2023-05-12T13:24:46.373Z,20.12
2023-05-12T13:29:48.614Z,20.74
2023-05-12T13:34:50.795Z,19.72
2023-05-12T13:39:53.234Z,20.54
2023-05-12T13:44:55.810Z,19.87
2023-05-12T13:49:57.925Z,19.60
2023-05-12T13:55:00.224Z,19.10
2023-05-12T14:00:02.440Z,19.65
2023-05-12T14:05:04.981Z,19.42
2023-05-12T14:10:07.657Z,19.42
2023-05-12T14:15:25.946Z,19.70
2023-05-12T14:20:28.576Z,20.01
2023-05-12T14:25:31.169Z,19.56
2023-05-12T14:30:35.555Z,20.27
2023-05-12T14:35:38.506Z,20.22
2023-05-12T14:40:42.493Z,20.31
2023-05-12T14:45:48.455Z,20.18
2023-05-12T14:50:54.771Z,20.80
2023-05-12T14:55:57.251Z,20.27
2023-05-12T15:01:01.893Z,20.22
2023-05-12T15:06:07.042Z,20.45
2023-05-12T15:11:09.771Z,21.53
2023-05-12T15:16:12.169Z,21.13
2023-05-12T15:21:14.305Z,20.82
2023-05-12T15:26:31.950Z,20.71
2023-05-12T15:31:36.263Z,21.18
2023-05-12T15:36:38.598Z,21.22
2023-05-12T15:41:40.781Z,21.91
2023-05-12T15:46:43.637Z,22.00
2023-05-12T15:51:47.313Z,22.38
2023-05-12T15:56:52.522Z,21.96
2023-05-12T16:01:55.719Z,22.01
2023-05-12T16:06:58.116Z,22.32
2023-05-12T16:12:00.495Z,22.63
2023-05-12T16:17:02.982Z,22.53
2023-05-12T16:22:05.533Z,22.89
2023-05-12T16:27:07.704Z,22.73
2023-05-12T16:32:10.533Z,23.04
2023-05-12T16:37:13.554Z,23.46
2023-05-12T16:42:16.017Z,23.15
2023-05-12T16:47:18.241Z,22.79
2023-05-12T16:52:21.009Z,23.39
2023-05-12T16:57:23.935Z,23.72
2023-05-12T17:02:26.352Z,24.28
2023-05-12T17:07:29.758Z,24.70
2023-05-12T17:12:33.024Z,24.14
2023-05-12T17:17:36.229Z,24.29
2023-05-12T17:22:44.593Z,24.82
2023-05-12T17:27:50.233Z,25.19
2023-05-12T17:32:52.244Z,25.14
2023-05-12T17:37:57.608Z,25.40
2023-05-12T17:42:59.763Z,25.79
2023-05-12T17:48:02.636Z,26.65
2023-05-12T17:53:05.032Z,27.24
2023-05-12T17:58:07.142Z,27.02
2023-05-12T18:03:09.361Z,28.89
2023-05-12T18:08:11.960Z,29.84
2023-05-12T18:13:15.068Z,30.36
2023-05-12T18:18:17.352Z,29.38
2023-05-12T18:23:19.453Z,30.60
2023-05-12T18:28:21.577Z,30.87
2023-05-12T18:33:23.589Z,31.18
2023-05-12T18:38:26.535Z,31.83
2023-05-12T18:43:28.857Z,32.70
2023-05-12T18:48:31.700Z,33.58
2023-05-12T18:53:34.185Z,35.84
2023-05-12T18:58:39.692Z,36.81
2023-05-12T19:03:43.380Z,36.24
2023-05-12T19:08:46.567Z,38.06
2023-05-12T19:13:51.009Z,38.26
2023-05-12T19:18:54.366Z,40.42
2023-05-12T19:23:56.950Z,40.92
2023-05-12T19:29:00.789Z,42.27
2023-05-12T19:34:03.267Z,42.06
2023-05-12T19:39:06.201Z,42.57
2023-05-12T19:44:08.483Z,46.08
2023-05-12T19:49:11.214Z,47.18
2023-05-12T19:54:13.751Z,49.29
2023-05-12T19:59:16.952Z,48.97
2023-05-12T20:04:19.422Z,50.64
2023-05-12T20:09:26.508Z,52.77
2023-05-12T20:14:28.594Z,51.13
2023-05-12T20:19:31.630Z,54.93
2023-05-12T20:24:34.279Z,52.38
2023-05-12T20:29:36.670Z,56.43
2023-05-12T20:34:39.087Z,53.61
2023-05-12T20:39:41.689Z,54.01
2023-05-12T20:44:44.717Z,55.08
2023-05-12T20:49:46.806Z,56.83
2023-05-12T20:54:49.021Z,56.59
2023-05-12T20:59:52.920Z,57.48
2023-05-12T21:04:55.095Z,60.49
2023-05-12T21:09:59.781Z,60.83
2023-05-12T21:15:02.201Z,59.85
2023-05-12T21:20:08.921Z,62.46
2023-05-12T21:25:11.221Z,61.35
2023-05-12T21:30:13.666Z,62.96
2023-05-12T21:35:15.929Z,63.88
2023-05-12T21:40:18.326Z,62.80
2023-05-12T21:45:21.837Z,64.00
2023-05-12T21:50:23.909Z,63.02
2023-05-12T21:55:25.904Z,63.56
2023-05-12T22:00:28.315Z,64.73
2023-05-12T22:05:30.576Z,64.20
2023-05-12T22:10:32.709Z,65.43
2023-05-12T22:15:35.006Z,64.58
2023-05-12T22:20:37.071Z,63.84
2023-05-12T22:25:39.409Z,64.24
2023-05-12T22:30:42.468Z,63.22
2023-05-12T22:35:44.832Z,63.71
2023-05-12T22:40:47.256Z,65.39
2023-05-12T22:45:52.815Z,64.67
2023-05-12T22:50:55.063Z,64.18
2023-05-12T22:55:57.078Z,65.32
2023-05-12T23:01:00.881Z,66.88
2023-05-12T23:06:03.048Z,67.92
2023-05-12T23:11:05.606Z,67.11
2023-05-12T23:16:07.915Z,67.26
2023-05-12T23:21:10.029Z,67.13
2023-05-12T23:26:12.126Z,66.63
2023-05-12T23:31:14.127Z,68.61
2023-05-12T23:36:16.353Z,66.82
2023-05-12T23:41:18.470Z,68.31
2023-05-12T23:46:20.446Z,67.90
2023-05-12T23:51:23.379Z,66.19
2023-05-12T23:56:25.454Z,68.52
